sensor_id;sensor_type;location;lat;lon;timestamp;P1;durP1;ratioP1;P2;durP2;ratioP2
15258;SDS011;34462;51.368;12.364;2023-03-15T00:00:04;4.13;;;2.00;;
15258;SDS011;34462;51.368;12.364;2023-03-15T00:02:35;6.33;;;1.97;;
15258;SDS011;34462;51.368;12.364;2023-03-15T00:05:04;5.30;;;2.07;;
15258;SDS011;34462;51.368;12.364;2023-03-15T00:07:33;6.67;;;1.87;;
15258;SDS011;34462;51.368;12.364;2023-03-15T00:10:01;4.87;;;1.80;;
15258;SDS011;34462;51.368;12.364;2023-03-15T00:12:30;10.93;;;2.13;;
15258;SDS011;34462;51.368;12.364;2023-03-15T00:14:59;8.63;;;2.97;;
15258;SDS011;34462;51.368;12.364;2023-03-15T00:17:27;5.60;;;2.27;;
15258;SDS011;34462;51.368;12.364;2023-03-15T00:20:00;6.07;;;2.30;;
15258;SDS011;34462;51.368;12.364;2023-03-15T00:22:29;4.83;;;1.70;;
15258;SDS011;34462;51.368;12.364;2023-03-15T00:24:57;3.73;;;1.83;;
15258;SDS011;34462;51.368;12.364;2023-03-15T00:27:25;4.70;;;1.87;;
15258;SDS011;34462;51.368;12.364;2023-03-15T00:29:55;6.47;;;2.13;;
15258;SDS011;34462;51.368;12.364;2023-03-15T00:32:23;6.53;;;1.70;;
15258;SDS011;34462;51.368;12.364;2023-03-15T00:34:51;6.10;;;1.80;;
15258;SDS011;34462;51.368;12.364;2023-03-15T00:37:19;7.07;;;1.63;;
15258;SDS011;34462;51.368;12.364;2023-03-15T00:39:51;6.40;;;2.00;;
15258;SDS011;34462;51.368;12.364;2023-03-15T00:42:20;5.50;;;2.03;;
15258;SDS011;34462;51.368;12.364;2023-03-15T00:44:52;6.40;;;1.77;;
15258;SDS011;34462;51.368;12.364;2023-03-15T00:47:22;8.00;;;2.00;;
15258;SDS011;34462;51.368;12.364;2023-03-15T00:49:50;7.53;;;1.97;;
15258;SDS011;34462;51.368;12.364;2023-03-15T00:52:18;8.10;;;1.80;;
15258;SDS011;34462;51.368;12.364;2023-03-15T00:54:49;6.40;;;1.90;;
15258;SDS011;34462;51.368;12.364;2023-03-15T00:57:18;5.17;;;2.00;;
15258;SDS011;34462;51.368;12.364;2023-03-15T00:59:47;5.00;;;1.77;;
15258;SDS011;34462;51.368;12.364;2023-03-15T01:02:19;8.83;;;2.00;;
15258;SDS011;34462;51.368;12.364;2023-03-15T01:04:47;4.60;;;2.10;;
15258;SDS011;34462;51.368;12.364;2023-03-15T01:07:16;5.60;;;2.10;;
15258;SDS011;34462;51.368;12.364;2023-03-15T01:09:44;5.63;;;1.97;;
15258;SDS011;34462;51.368;12.364;2023-03-15T01:12:13;5.23;;;1.70;;
15258;SDS011;34462;51.368;12.364;2023-03-15T01:14:42;8.70;;;2.00;;
15258;SDS011;34462;51.368;12.364;2023-03-15T01:17:10;5.53;;;1.90;;
15258;SDS011;34462;51.368;12.364;2023-03-15T01:19:39;7.10;;;1.97;;
15258;SDS011;34462;51.368;12.364;2023-03-15T01:22:08;6.97;;;2.00;;
15258;SDS011;34462;51.368;12.364;2023-03-15T01:24:36;6.67;;;2.10;;
15258;SDS011;34462;51.368;12.364;2023-03-15T01:27:04;6.50;;;2.20;;
15258;SDS011;34462;51.368;12.364;2023-03-15T01:29:32;5.67;;;2.00;;
15258;SDS011;34462;51.368;12.364;2023-03-15T01:32:00;7.70;;;2.50;;
15258;SDS011;34462;51.368;12.364;2023-03-15T01:34:29;3.70;;;2.23;;
15258;SDS011;34462;51.368;12.364;2023-03-15T01:36:58;3.87;;;1.60;;
15258;SDS011;34462;51.368;12.364;2023-03-15T01:39:28;12.90;;;2.43;;
15258;SDS011;34462;51.368;12.364;2023-03-15T01:41:56;3.57;;;1.90;;
15258;SDS011;34462;51.368;12.364;2023-03-15T01:44:44;6.70;;;1.97;;
15258;SDS011;34462;51.368;12.364;2023-03-15T01:47:18;4.93;;;2.17;;
15258;SDS011;34462;51.368;12.364;2023-03-15T01:49:48;7.23;;;1.60;;
15258;SDS011;34462;51.368;12.364;2023-03-15T01:52:30;4.67;;;1.60;;
15258;SDS011;34462;51.368;12.364;2023-03-15T01:55:03;5.13;;;1.30;;
15258;SDS011;34462;51.368;12.364;2023-03-15T01:57:37;6.17;;;1.63;;
15258;SDS011;34462;51.368;12.364;2023-03-15T02:00:11;6.27;;;1.70;;
15258;SDS011;34462;51.368;12.364;2023-03-15T02:02:43;9.17;;;2.13;;
15258;SDS011;34462;51.368;12.364;2023-03-15T02:05:16;3.73;;;1.70;;
15258;SDS011;34462;51.368;12.364;2023-03-15T02:07:51;5.50;;;2.27;;
15258;SDS011;34462;51.368;12.364;2023-03-15T02:10:22;3.70;;;1.73;;
15258;SDS011;34462;51.368;12.364;2023-03-15T02:12:56;5.40;;;1.70;;
15258;SDS011;34462;51.368;12.364;2023-03-15T02:15:25;4.80;;;1.53;;
15258;SDS011;34462;51.368;12.364;2023-03-15T02:17:54;7.53;;;1.90;;
15258;SDS011;34462;51.368;12.364;2023-03-15T02:20:26;4.33;;;1.90;;
15258;SDS011;34462;51.368;12.364;2023-03-15T02:23:05;10.53;;;2.20;;
15258;SDS011;34462;51.368;12.364;2023-03-15T02:25:39;4.07;;;1.60;;
15258;SDS011;34462;51.368;12.364;2023-03-15T02:28:19;3.97;;;2.10;;
15258;SDS011;34462;51.368;12.364;2023-03-15T02:30:49;4.60;;;2.10;;
15258;SDS011;34462;51.368;12.364;2023-03-15T02:33:18;3.87;;;2.40;;
15258;SDS011;34462;51.368;12.364;2023-03-15T02:35:52;4.97;;;2.53;;
15258;SDS011;34462;51.368;12.364;2023-03-15T02:38:21;6.90;;;2.03;;
15258;SDS011;34462;51.368;12.364;2023-03-15T02:40:50;4.53;;;2.67;;
15258;SDS011;34462;51.368;12.364;2023-03-15T02:43:22;6.87;;;2.10;;
15258;SDS011;34462;51.368;12.364;2023-03-15T02:45:55;4.37;;;2.37;;
15258;SDS011;34462;51.368;12.364;2023-03-15T02:48:25;5.53;;;2.13;;
15258;SDS011;34462;51.368;12.364;2023-03-15T02:50:54;6.67;;;2.40;;
15258;SDS011;34462;51.368;12.364;2023-03-15T02:53:23;4.10;;;1.93;;
15258;SDS011;34462;51.368;12.364;2023-03-15T02:55:51;5.93;;;2.53;;
15258;SDS011;34462;51.368;12.364;2023-03-15T02:58:20;5.10;;;2.50;;
15258;SDS011;34462;51.368;12.364;2023-03-15T03:00:49;6.97;;;2.23;;
15258;SDS011;34462;51.368;12.364;2023-03-15T03:03:19;6.13;;;2.40;;
15258;SDS011;34462;51.368;12.364;2023-03-15T03:05:47;8.63;;;2.80;;
15258;SDS011;34462;51.368;12.364;2023-03-15T03:08:15;10.80;;;2.97;;
15258;SDS011;34462;51.368;12.364;2023-03-15T03:10:43;7.00;;;2.73;;
15258;SDS011;34462;51.368;12.364;2023-03-15T03:13:11;6.50;;;2.33;;
15258;SDS011;34462;51.368;12.364;2023-03-15T03:15:41;5.97;;;2.80;;
15258;SDS011;34462;51.368;12.364;2023-03-15T03:18:10;6.40;;;3.00;;
15258;SDS011;34462;51.368;12.364;2023-03-15T03:20:38;7.90;;;3.73;;
15258;SDS011;34462;51.368;12.364;2023-03-15T03:23:06;9.90;;;4.00;;
15258;SDS011;34462;51.368;12.364;2023-03-15T03:25:35;10.17;;;3.87;;
15258;SDS011;34462;51.368;12.364;2023-03-15T03:28:03;6.77;;;4.30;;
15258;SDS011;34462;51.368;12.364;2023-03-15T03:30:33;10.60;;;4.60;;
15258;SDS011;34462;51.368;12.364;2023-03-15T03:33:03;5.97;;;4.23;;
15258;SDS011;34462;51.368;12.364;2023-03-15T03:35:31;8.13;;;3.60;;
15258;SDS011;34462;51.368;12.364;2023-03-15T03:37:59;5.47;;;3.40;;
15258;SDS011;34462;51.368;12.364;2023-03-15T03:40:27;4.50;;;2.70;;
15258;SDS011;34462;51.368;12.364;2023-03-15T03:42:55;4.23;;;2.50;;
15258;SDS011;34462;51.368;12.364;2023-03-15T03:45:23;5.47;;;2.77;;
15258;SDS011;34462;51.368;12.364;2023-03-15T03:47:52;4.87;;;2.53;;
15258;SDS011;34462;51.368;12.364;2023-03-15T03:50:21;3.70;;;2.80;;
15258;SDS011;34462;51.368;12.364;2023-03-15T03:52:50;8.20;;;3.73;;
15258;SDS011;34462;51.368;12.364;2023-03-15T03:55:18;9.00;;;3.50;;
15258;SDS011;34462;51.368;12.364;2023-03-15T03:57:50;7.33;;;2.97;;
15258;SDS011;34462;51.368;12.364;2023-03-15T04:00:19;7.60;;;3.07;;
15258;SDS011;34462;51.368;12.364;2023-03-15T04:02:47;6.63;;;2.50;;
15258;SDS011;34462;51.368;12.364;2023-03-15T04:05:19;6.10;;;2.60;;
15258;SDS011;34462;51.368;12.364;2023-03-15T04:07:49;4.63;;;2.50;;
15258;SDS011;34462;51.368;12.364;2023-03-15T04:10:17;8.17;;;2.47;;
15258;SDS011;34462;51.368;12.364;2023-03-15T04:12:52;4.83;;;2.23;;
15258;SDS011;34462;51.368;12.364;2023-03-15T04:15:22;8.47;;;2.70;;
15258;SDS011;34462;51.368;12.364;2023-03-15T04:17:50;3.90;;;2.00;;
15258;SDS011;34462;51.368;12.364;2023-03-15T04:20:22;8.03;;;3.10;;
15258;SDS011;34462;51.368;12.364;2023-03-15T04:22:52;5.30;;;2.67;;
15258;SDS011;34462;51.368;12.364;2023-03-15T04:25:20;5.00;;;3.40;;
15258;SDS011;34462;51.368;12.364;2023-03-15T04:27:51;5.53;;;2.37;;
15258;SDS011;34462;51.368;12.364;2023-03-15T04:30:24;6.53;;;2.60;;
15258;SDS011;34462;51.368;12.364;2023-03-15T04:32:53;4.67;;;2.00;;
15258;SDS011;34462;51.368;12.364;2023-03-15T04:35:26;5.93;;;2.70;;
15258;SDS011;34462;51.368;12.364;2023-03-15T04:37:55;6.00;;;2.80;;
15258;SDS011;34462;51.368;12.364;2023-03-15T04:40:24;8.10;;;2.57;;
15258;SDS011;34462;51.368;12.364;2023-03-15T04:42:53;7.87;;;2.90;;
15258;SDS011;34462;51.368;12.364;2023-03-15T04:45:22;4.07;;;1.80;;
15258;SDS011;34462;51.368;12.364;2023-03-15T04:47:52;6.30;;;2.73;;
15258;SDS011;34462;51.368;12.364;2023-03-15T04:50:21;5.63;;;3.03;;
15258;SDS011;34462;51.368;12.364;2023-03-15T04:52:52;3.57;;;2.90;;
15258;SDS011;34462;51.368;12.364;2023-03-15T04:55:20;8.63;;;2.80;;
15258;SDS011;34462;51.368;12.364;2023-03-15T04:57:49;4.13;;;2.10;;
15258;SDS011;34462;51.368;12.364;2023-03-15T05:00:17;5.20;;;2.37;;
15258;SDS011;34462;51.368;12.364;2023-03-15T05:02:46;5.90;;;2.20;;
15258;SDS011;34462;51.368;12.364;2023-03-15T05:05:20;6.37;;;2.33;;
15258;SDS011;34462;51.368;12.364;2023-03-15T05:07:49;4.67;;;2.40;;
15258;SDS011;34462;51.368;12.364;2023-03-15T05:10:20;8.13;;;2.73;;
15258;SDS011;34462;51.368;12.364;2023-03-15T05:12:48;5.70;;;2.30;;
15258;SDS011;34462;51.368;12.364;2023-03-15T05:15:16;5.43;;;2.70;;
15258;SDS011;34462;51.368;12.364;2023-03-15T05:17:45;3.60;;;2.00;;
15258;SDS011;34462;51.368;12.364;2023-03-15T05:20:14;6.43;;;2.27;;
15258;SDS011;34462;51.368;12.364;2023-03-15T05:22:42;6.70;;;2.80;;
15258;SDS011;34462;51.368;12.364;2023-03-15T05:25:12;7.30;;;1.97;;
15258;SDS011;34462;51.368;12.364;2023-03-15T05:27:40;7.47;;;1.90;;
15258;SDS011;34462;51.368;12.364;2023-03-15T05:30:12;6.80;;;2.00;;
15258;SDS011;34462;51.368;12.364;2023-03-15T05:32:41;6.67;;;2.00;;
15258;SDS011;34462;51.368;12.364;2023-03-15T05:35:11;9.03;;;3.23;;
15258;SDS011;34462;51.368;12.364;2023-03-15T05:37:39;6.13;;;2.50;;
15258;SDS011;34462;51.368;12.364;2023-03-15T05:40:08;3.57;;;2.00;;
15258;SDS011;34462;51.368;12.364;2023-03-15T05:42:39;8.27;;;2.70;;
15258;SDS011;34462;51.368;12.364;2023-03-15T05:45:07;5.97;;;2.10;;
15258;SDS011;34462;51.368;12.364;2023-03-15T05:47:37;5.53;;;1.93;;
15258;SDS011;34462;51.368;12.364;2023-03-15T05:50:05;6.10;;;2.43;;
15258;SDS011;34462;51.368;12.364;2023-03-15T05:52:34;4.77;;;1.97;;
15258;SDS011;34462;51.368;12.364;2023-03-15T05:55:03;5.80;;;2.20;;
15258;SDS011;34462;51.368;12.364;2023-03-15T05:57:31;7.33;;;2.57;;
15258;SDS011;34462;51.368;12.364;2023-03-15T06:00:02;7.53;;;2.07;;
15258;SDS011;34462;51.368;12.364;2023-03-15T06:02:34;6.87;;;2.03;;
15258;SDS011;34462;51.368;12.364;2023-03-15T06:05:02;11.20;;;2.27;;
15258;SDS011;34462;51.368;12.364;2023-03-15T06:07:31;5.73;;;2.10;;
15258;SDS011;34462;51.368;12.364;2023-03-15T06:09:59;4.07;;;1.77;;
15258;SDS011;34462;51.368;12.364;2023-03-15T06:12:28;8.10;;;1.87;;
15258;SDS011;34462;51.368;12.364;2023-03-15T06:14:56;5.40;;;1.63;;
15258;SDS011;34462;51.368;12.364;2023-03-15T06:17:25;6.47;;;1.80;;
15258;SDS011;34462;51.368;12.364;2023-03-15T06:19:54;7.07;;;1.83;;
15258;SDS011;34462;51.368;12.364;2023-03-15T06:22:22;5.80;;;1.70;;
15258;SDS011;34462;51.368;12.364;2023-03-15T06:24:50;5.90;;;2.10;;
15258;SDS011;34462;51.368;12.364;2023-03-15T06:27:18;3.93;;;1.67;;
15258;SDS011;34462;51.368;12.364;2023-03-15T06:29:47;5.67;;;1.80;;
15258;SDS011;34462;51.368;12.364;2023-03-15T06:32:16;7.67;;;1.90;;
15258;SDS011;34462;51.368;12.364;2023-03-15T06:34:46;6.77;;;1.53;;
15258;SDS011;34462;51.368;12.364;2023-03-15T06:37:14;4.90;;;1.83;;
15258;SDS011;34462;51.368;12.364;2023-03-15T06:39:59;6.10;;;1.97;;
15258;SDS011;34462;51.368;12.364;2023-03-15T06:42:29;7.73;;;2.03;;
15258;SDS011;34462;51.368;12.364;2023-03-15T06:44:57;6.20;;;2.70;;
15258;SDS011;34462;51.368;12.364;2023-03-15T06:47:26;7.33;;;2.20;;
15258;SDS011;34462;51.368;12.364;2023-03-15T06:49:56;6.50;;;2.00;;
15258;SDS011;34462;51.368;12.364;2023-03-15T06:52:24;6.23;;;1.80;;
15258;SDS011;34462;51.368;12.364;2023-03-15T06:54:52;7.30;;;1.90;;
15258;SDS011;34462;51.368;12.364;2023-03-15T06:57:21;6.23;;;2.10;;
15258;SDS011;34462;51.368;12.364;2023-03-15T06:59:49;4.50;;;1.63;;
15258;SDS011;34462;51.368;12.364;2023-03-15T07:02:19;4.67;;;1.90;;
15258;SDS011;34462;51.368;12.364;2023-03-15T07:04:47;6.00;;;2.13;;
15258;SDS011;34462;51.368;12.364;2023-03-15T07:07:17;5.20;;;2.10;;
15258;SDS011;34462;51.368;12.364;2023-03-15T07:09:45;5.30;;;1.67;;
15258;SDS011;34462;51.368;12.364;2023-03-15T07:12:13;4.83;;;1.73;;
15258;SDS011;34462;51.368;12.364;2023-03-15T07:14:41;7.37;;;1.80;;
15258;SDS011;34462;51.368;12.364;2023-03-15T07:17:11;6.90;;;2.07;;
15258;SDS011;34462;51.368;12.364;2023-03-15T07:19:40;5.97;;;1.60;;
15258;SDS011;34462;51.368;12.364;2023-03-15T07:22:23;4.93;;;1.87;;
15258;SDS011;34462;51.368;12.364;2023-03-15T07:24:51;7.90;;;2.03;;
15258;SDS011;34462;51.368;12.364;2023-03-15T07:27:19;10.40;;;2.97;;
15258;SDS011;34462;51.368;12.364;2023-03-15T07:29:49;6.97;;;3.50;;
15258;SDS011;34462;51.368;12.364;2023-03-15T07:32:17;6.87;;;3.00;;
15258;SDS011;34462;51.368;12.364;2023-03-15T07:34:46;7.80;;;3.30;;
15258;SDS011;34462;51.368;12.364;2023-03-15T07:37:14;8.97;;;3.07;;
15258;SDS011;34462;51.368;12.364;2023-03-15T07:39:43;5.40;;;2.50;;
15258;SDS011;34462;51.368;12.364;2023-03-15T07:42:12;8.83;;;3.10;;
15258;SDS011;34462;51.368;12.364;2023-03-15T07:44:40;4.67;;;3.10;;
15258;SDS011;34462;51.368;12.364;2023-03-15T07:47:08;8.60;;;3.20;;
15258;SDS011;34462;51.368;12.364;2023-03-15T07:49:37;6.73;;;2.90;;
15258;SDS011;34462;51.368;12.364;2023-03-15T07:52:06;10.77;;;2.93;;
15258;SDS011;34462;51.368;12.364;2023-03-15T07:54:35;4.20;;;2.57;;
15258;SDS011;34462;51.368;12.364;2023-03-15T07:57:04;6.13;;;3.50;;
15258;SDS011;34462;51.368;12.364;2023-03-15T07:59:33;9.97;;;4.07;;
15258;SDS011;34462;51.368;12.364;2023-03-15T08:02:01;8.10;;;2.77;;
15258;SDS011;34462;51.368;12.364;2023-03-15T08:04:29;8.97;;;3.93;;
15258;SDS011;34462;51.368;12.364;2023-03-15T08:07:00;8.57;;;3.43;;
15258;SDS011;34462;51.368;12.364;2023-03-15T08:09:29;8.83;;;3.93;;
15258;SDS011;34462;51.368;12.364;2023-03-15T08:11:59;8.30;;;3.70;;
15258;SDS011;34462;51.368;12.364;2023-03-15T08:14:30;13.90;;;3.93;;
15258;SDS011;34462;51.368;12.364;2023-03-15T08:16:58;5.73;;;3.23;;
15258;SDS011;34462;51.368;12.364;2023-03-15T08:19:26;8.10;;;3.60;;
15258;SDS011;34462;51.368;12.364;2023-03-15T08:21:54;8.43;;;3.80;;
15258;SDS011;34462;51.368;12.364;2023-03-15T08:24:23;8.87;;;3.50;;
15258;SDS011;34462;51.368;12.364;2023-03-15T08:26:52;11.40;;;4.30;;
15258;SDS011;34462;51.368;12.364;2023-03-15T08:29:20;8.07;;;4.40;;
15258;SDS011;34462;51.368;12.364;2023-03-15T08:31:49;7.77;;;3.43;;
15258;SDS011;34462;51.368;12.364;2023-03-15T08:34:18;6.93;;;3.30;;
15258;SDS011;34462;51.368;12.364;2023-03-15T08:36:46;9.00;;;3.37;;
15258;SDS011;34462;51.368;12.364;2023-03-15T08:39:15;7.93;;;2.97;;
15258;SDS011;34462;51.368;12.364;2023-03-15T08:41:43;7.93;;;2.63;;
15258;SDS011;34462;51.368;12.364;2023-03-15T08:44:12;7.20;;;3.00;;
15258;SDS011;34462;51.368;12.364;2023-03-15T08:46:40;8.33;;;3.53;;
15258;SDS011;34462;51.368;12.364;2023-03-15T08:49:10;7.90;;;3.60;;
15258;SDS011;34462;51.368;12.364;2023-03-15T08:51:38;7.20;;;3.60;;
15258;SDS011;34462;51.368;12.364;2023-03-15T08:54:06;9.23;;;3.40;;
15258;SDS011;34462;51.368;12.364;2023-03-15T08:56:34;8.47;;;3.80;;
15258;SDS011;34462;51.368;12.364;2023-03-15T08:59:02;8.40;;;3.33;;
15258;SDS011;34462;51.368;12.364;2023-03-15T09:01:31;7.93;;;3.53;;
15258;SDS011;34462;51.368;12.364;2023-03-15T09:04:00;12.33;;;3.67;;
15258;SDS011;34462;51.368;12.364;2023-03-15T09:06:30;8.80;;;3.37;;
15258;SDS011;34462;51.368;12.364;2023-03-15T09:08:59;6.70;;;3.00;;
15258;SDS011;34462;51.368;12.364;2023-03-15T09:11:27;5.80;;;2.80;;
15258;SDS011;34462;51.368;12.364;2023-03-15T09:13:55;9.30;;;3.00;;
15258;SDS011;34462;51.368;12.364;2023-03-15T09:16:23;6.97;;;3.10;;
15258;SDS011;34462;51.368;12.364;2023-03-15T09:18:52;6.10;;;2.67;;
15258;SDS011;34462;51.368;12.364;2023-03-15T09:21:20;6.77;;;2.93;;
15258;SDS011;34462;51.368;12.364;2023-03-15T09:23:51;4.70;;;2.50;;
15258;SDS011;34462;51.368;12.364;2023-03-15T09:26:19;6.10;;;2.50;;
15258;SDS011;34462;51.368;12.364;2023-03-15T09:28:47;4.67;;;2.97;;
15258;SDS011;34462;51.368;12.364;2023-03-15T09:31:15;6.37;;;2.80;;
15258;SDS011;34462;51.368;12.364;2023-03-15T09:33:43;4.20;;;2.73;;
15258;SDS011;34462;51.368;12.364;2023-03-15T09:36:12;4.57;;;2.60;;
15258;SDS011;34462;51.368;12.364;2023-03-15T09:38:41;5.20;;;2.80;;
15258;SDS011;34462;51.368;12.364;2023-03-15T09:41:13;4.53;;;2.13;;
15258;SDS011;34462;51.368;12.364;2023-03-15T09:43:51;6.20;;;2.30;;
15258;SDS011;34462;51.368;12.364;2023-03-15T09:46:38;3.80;;;2.10;;
15258;SDS011;34462;51.368;12.364;2023-03-15T09:49:20;4.83;;;2.27;;
15258;SDS011;34462;51.368;12.364;2023-03-15T09:52:04;5.13;;;2.60;;
15258;SDS011;34462;51.368;12.364;2023-03-15T09:54:57;3.77;;;1.83;;
15258;SDS011;34462;51.368;12.364;2023-03-15T09:57:34;4.80;;;1.90;;
15258;SDS011;34462;51.368;12.364;2023-03-15T10:00:11;2.27;;;1.40;;
15258;SDS011;34462;51.368;12.364;2023-03-15T10:02:47;3.60;;;1.73;;
15258;SDS011;34462;51.368;12.364;2023-03-15T10:05:27;1.50;;;1.30;;
15258;SDS011;34462;51.368;12.364;2023-03-15T10:08:07;2.07;;;1.50;;
15258;SDS011;34462;51.368;12.364;2023-03-15T10:10:39;3.53;;;1.57;;
15258;SDS011;34462;51.368;12.364;2023-03-15T10:13:27;3.40;;;1.60;;
15258;SDS011;34462;51.368;12.364;2023-03-15T10:16:20;2.90;;;1.80;;
15258;SDS011;34462;51.368;12.364;2023-03-15T10:19:14;5.30;;;2.03;;
15258;SDS011;34462;51.368;12.364;2023-03-15T10:21:57;3.47;;;2.13;;
15258;SDS011;34462;51.368;12.364;2023-03-15T10:24:32;2.87;;;1.90;;
15258;SDS011;34462;51.368;12.364;2023-03-15T10:27:11;4.40;;;2.20;;
15258;SDS011;34462;51.368;12.364;2023-03-15T10:29:47;2.70;;;1.70;;
15258;SDS011;34462;51.368;12.364;2023-03-15T10:32:21;3.23;;;2.17;;
15258;SDS011;34462;51.368;12.364;2023-03-15T10:34:54;3.53;;;2.33;;
15258;SDS011;34462;51.368;12.364;2023-03-15T10:37:24;3.80;;;2.23;;
15258;SDS011;34462;51.368;12.364;2023-03-15T10:39:53;3.77;;;2.50;;
15258;SDS011;34462;51.368;12.364;2023-03-15T10:42:25;4.27;;;2.40;;
15258;SDS011;34462;51.368;12.364;2023-03-15T10:45:10;4.73;;;2.90;;
15258;SDS011;34462;51.368;12.364;2023-03-15T10:47:46;3.27;;;2.50;;
15258;SDS011;34462;51.368;12.364;2023-03-15T10:50:25;5.30;;;2.57;;
15258;SDS011;34462;51.368;12.364;2023-03-15T10:52:56;3.77;;;2.53;;
15258;SDS011;34462;51.368;12.364;2023-03-15T10:55:28;5.43;;;2.87;;
15258;SDS011;34462;51.368;12.364;2023-03-15T10:58:11;4.47;;;1.90;;
15258;SDS011;34462;51.368;12.364;2023-03-15T11:00:53;2.50;;;2.10;;
15258;SDS011;34462;51.368;12.364;2023-03-15T11:03:28;2.97;;;1.60;;
15258;SDS011;34462;51.368;12.364;2023-03-15T11:05:57;2.53;;;1.87;;
15258;SDS011;34462;51.368;12.364;2023-03-15T11:08:35;3.53;;;1.80;;
15258;SDS011;34462;51.368;12.364;2023-03-15T11:11:05;4.17;;;2.50;;
15258;SDS011;34462;51.368;12.364;2023-03-15T11:13:35;3.17;;;2.87;;
15258;SDS011;34462;51.368;12.364;2023-03-15T11:16:13;4.93;;;3.10;;
15258;SDS011;34462;51.368;12.364;2023-03-15T11:18:49;3.00;;;2.00;;
15258;SDS011;34462;51.368;12.364;2023-03-15T11:21:24;3.20;;;1.90;;
15258;SDS011;34462;51.368;12.364;2023-03-15T11:23:58;3.23;;;1.53;;
15258;SDS011;34462;51.368;12.364;2023-03-15T11:26:32;3.43;;;1.53;;
15258;SDS011;34462;51.368;12.364;2023-03-15T11:29:04;2.03;;;1.20;;
15258;SDS011;34462;51.368;12.364;2023-03-15T11:31:42;1.53;;;1.43;;
15258;SDS011;34462;51.368;12.364;2023-03-15T11:34:12;1.83;;;1.60;;
15258;SDS011;34462;51.368;12.364;2023-03-15T11:36:52;2.93;;;1.53;;
15258;SDS011;34462;51.368;12.364;2023-03-15T11:39:36;2.07;;;1.43;;
15258;SDS011;34462;51.368;12.364;2023-03-15T11:42:17;1.50;;;1.20;;
15258;SDS011;34462;51.368;12.364;2023-03-15T11:44:54;1.47;;;1.10;;
15258;SDS011;34462;51.368;12.364;2023-03-15T11:47:33;1.80;;;1.10;;
15258;SDS011;34462;51.368;12.364;2023-03-15T11:50:10;1.87;;;1.03;;
15258;SDS011;34462;51.368;12.364;2023-03-15T11:52:41;2.63;;;1.17;;
15258;SDS011;34462;51.368;12.364;2023-03-15T11:55:16;1.83;;;0.90;;
15258;SDS011;34462;51.368;12.364;2023-03-15T11:57:49;1.90;;;0.83;;
15258;SDS011;34462;51.368;12.364;2023-03-15T12:00:20;1.43;;;0.90;;
15258;SDS011;34462;51.368;12.364;2023-03-15T12:06:13;1.20;;;0.80;;
15258;SDS011;34462;51.368;12.364;2023-03-15T12:12:36;0.80;;;0.80;;
15258;SDS011;34462;51.368;12.364;2023-03-15T12:15:14;1.50;;;0.97;;
15258;SDS011;34462;51.368;12.364;2023-03-15T12:18:17;1.33;;;0.80;;
15258;SDS011;34462;51.368;12.364;2023-03-15T12:21:10;2.33;;;0.90;;
15258;SDS011;34462;51.368;12.364;2023-03-15T12:23:44;1.23;;;0.77;;
15258;SDS011;34462;51.368;12.364;2023-03-15T12:26:24;1.37;;;0.80;;
15258;SDS011;34462;51.368;12.364;2023-03-15T12:29:04;2.37;;;0.90;;
15258;SDS011;34462;51.368;12.364;2023-03-15T12:31:43;1.67;;;1.10;;
15258;SDS011;34462;51.368;12.364;2023-03-15T12:34:23;1.10;;;0.90;;
15258;SDS011;34462;51.368;12.364;2023-03-15T12:37:14;3.93;;;0.90;;
15258;SDS011;34462;51.368;12.364;2023-03-15T12:39:47;0.93;;;0.80;;
15258;SDS011;34462;51.368;12.364;2023-03-15T12:45:39;0.80;;;0.70;;
15258;SDS011;34462;51.368;12.364;2023-03-15T12:48:19;1.27;;;1.00;;
15258;SDS011;34462;51.368;12.364;2023-03-15T12:50:56;1.53;;;0.90;;
15258;SDS011;34462;51.368;12.364;2023-03-15T12:53:38;1.13;;;0.80;;
15258;SDS011;34462;51.368;12.364;2023-03-15T12:56:24;4.17;;;1.07;;
15258;SDS011;34462;51.368;12.364;2023-03-15T12:59:03;2.73;;;0.83;;
15258;SDS011;34462;51.368;12.364;2023-03-15T13:01:45;1.50;;;0.90;;
15258;SDS011;34462;51.368;12.364;2023-03-15T13:04:13;3.10;;;1.40;;
15258;SDS011;34462;51.368;12.364;2023-03-15T13:06:48;2.23;;;1.03;;
15258;SDS011;34462;51.368;12.364;2023-03-15T13:12:43;2.57;;;1.53;;
15258;SDS011;34462;51.368;12.364;2023-03-15T13:15:22;1.40;;;1.30;;
15258;SDS011;34462;51.368;12.364;2023-03-15T13:18:02;2.00;;;1.27;;
15258;SDS011;34462;51.368;12.364;2023-03-15T13:20:46;2.17;;;1.40;;
15258;SDS011;34462;51.368;12.364;2023-03-15T13:23:26;1.03;;;1.00;;
15258;SDS011;34462;51.368;12.364;2023-03-15T13:26:00;1.30;;;1.17;;
15258;SDS011;34462;51.368;12.364;2023-03-15T13:28:45;1.53;;;1.20;;
15258;SDS011;34462;51.368;12.364;2023-03-15T13:31:19;1.73;;;1.10;;
15258;SDS011;34462;51.368;12.364;2023-03-15T13:33:50;5.53;;;1.20;;
15258;SDS011;34462;51.368;12.364;2023-03-15T13:36:23;1.37;;;1.23;;
15258;SDS011;34462;51.368;12.364;2023-03-15T13:38:55;2.00;;;1.30;;
15258;SDS011;34462;51.368;12.364;2023-03-15T13:41:25;3.17;;;1.40;;
15258;SDS011;34462;51.368;12.364;2023-03-15T13:43:56;1.90;;;1.33;;
15258;SDS011;34462;51.368;12.364;2023-03-15T13:46:30;1.43;;;1.30;;
15258;SDS011;34462;51.368;12.364;2023-03-15T13:48:58;2.43;;;1.30;;
15258;SDS011;34462;51.368;12.364;2023-03-15T13:51:27;1.70;;;1.23;;
15258;SDS011;34462;51.368;12.364;2023-03-15T13:54:00;2.67;;;1.63;;
15258;SDS011;34462;51.368;12.364;2023-03-15T13:56:35;2.57;;;1.60;;
15258;SDS011;34462;51.368;12.364;2023-03-15T13:59:15;1.60;;;1.50;;
15258;SDS011;34462;51.368;12.364;2023-03-15T14:01:45;2.00;;;1.10;;
15258;SDS011;34462;51.368;12.364;2023-03-15T14:04:19;1.43;;;1.30;;
15258;SDS011;34462;51.368;12.364;2023-03-15T14:06:48;1.50;;;1.27;;
15258;SDS011;34462;51.368;12.364;2023-03-15T14:09:28;2.43;;;1.40;;
15258;SDS011;34462;51.368;12.364;2023-03-15T14:12:02;2.80;;;1.30;;
15258;SDS011;34462;51.368;12.364;2023-03-15T14:14:45;1.73;;;1.00;;
15258;SDS011;34462;51.368;12.364;2023-03-15T14:17:19;1.93;;;1.10;;
15258;SDS011;34462;51.368;12.364;2023-03-15T14:19:53;3.13;;;1.30;;
15258;SDS011;34462;51.368;12.364;2023-03-15T14:22:32;2.23;;;1.23;;
15258;SDS011;34462;51.368;12.364;2023-03-15T14:25:01;3.77;;;1.40;;
15258;SDS011;34462;51.368;12.364;2023-03-15T14:27:46;2.93;;;1.00;;
15258;SDS011;34462;51.368;12.364;2023-03-15T14:30:18;2.00;;;1.03;;
15258;SDS011;34462;51.368;12.364;2023-03-15T14:32:51;2.37;;;1.50;;
15258;SDS011;34462;51.368;12.364;2023-03-15T14:35:23;3.40;;;2.00;;
15258;SDS011;34462;51.368;12.364;2023-03-15T14:38:00;3.40;;;1.90;;
15258;SDS011;34462;51.368;12.364;2023-03-15T14:40:34;3.10;;;1.50;;
15258;SDS011;34462;51.368;12.364;2023-03-15T14:43:06;2.27;;;1.57;;
15258;SDS011;34462;51.368;12.364;2023-03-15T14:45:38;1.60;;;1.50;;
15258;SDS011;34462;51.368;12.364;2023-03-15T14:48:11;1.77;;;1.67;;
15258;SDS011;34462;51.368;12.364;2023-03-15T14:50:45;2.40;;;1.53;;
15258;SDS011;34462;51.368;12.364;2023-03-15T14:53:15;3.00;;;2.10;;
15258;SDS011;34462;51.368;12.364;2023-03-15T14:55:49;2.37;;;2.13;;
15258;SDS011;34462;51.368;12.364;2023-03-15T14:58:19;3.13;;;1.70;;
15258;SDS011;34462;51.368;12.364;2023-03-15T15:00:49;2.00;;;1.70;;
15258;SDS011;34462;51.368;12.364;2023-03-15T15:03:22;2.30;;;1.60;;
15258;SDS011;34462;51.368;12.364;2023-03-15T15:05:59;2.27;;;1.93;;
15258;SDS011;34462;51.368;12.364;2023-03-15T15:08:29;2.13;;;1.43;;
15258;SDS011;34462;51.368;12.364;2023-03-15T15:10:59;2.77;;;1.70;;
15258;SDS011;34462;51.368;12.364;2023-03-15T15:13:29;2.77;;;1.37;;